Time;durP1;ratioP1;P1;durP2;ratioP2;P2;SDS_P1;SDS_P2;PMS_P1;PMS_P2;Temp;Humidity;BMP_temperature;BMP_pressure;BME280_temperature;BME280_humidity;BME280_pressure;Samples;Min_cycle;Max_cycle;Signal;HPM_P1;HPM_P2
2022/07/04 05:12:53;;;;;;;4.38;1.65;;;;;;;15.73;75.94;102121.16;5074327;27;96804;-33
2022/07/04 05:15:18;;;;;;;3.92;1.65;;;;;;;15.70;74.84;102119.50;5077289;27;97147;-33
2022/07/04 05:17:43;;;;;;;4.28;1.80;;;;;;;15.71;75.24;102113.94;5076694;27;97498;-34
2022/07/04 05:20:09;;;;;;;8.15;1.70;;;;;;;15.79;74.56;102124.38;5076941;27;99515;-34
2022/07/04 05:22:35;;;;;;;3.03;1.60;;;;;;;15.84;75.76;102127.69;5077818;27;96596;-34
2022/07/04 05:25:00;;;;;;;6.65;2.15;;;;;;;15.84;75.92;102122.25;5077574;27;96764;-34
2022/07/04 05:27:26;;;;;;;5.15;1.80;;;;;;;15.88;74.62;102122.94;5077335;27;100074;-34
2022/07/04 05:29:51;;;;;;;3.40;1.50;;;;;;;15.91;75.42;102125.47;5077456;27;97792;-34
2022/07/04 05:32:16;;;;;;;7.53;1.92;;;;;;;15.98;75.65;102124.09;5076972;27;96581;-33
2022/07/04 05:34:42;;;;;;;6.28;2.00;;;;;;;16.00;74.85;102111.22;5077564;27;96794;-34
2022/07/04 05:37:07;;;;;;;5.03;1.92;;;;;;;16.01;74.35;102110.22;5076483;27;97341;-34
2022/07/04 05:39:33;;;;;;;8.05;2.13;;;;;;;16.11;74.33;102111.41;5075295;27;99029;-34
2022/07/04 05:41:58;;;;;;;5.13;1.92;;;;;;;16.26;74.65;102128.66;5075759;27;97840;-34
2022/07/04 05:44:23;;;;;;;3.30;1.73;;;;;;;16.29;75.26;102124.84;5077032;27;96746;-34
2022/07/04 05:46:49;;;;;;;5.18;1.83;;;;;;;16.33;74.58;102121.81;5076861;27;98330;-34
2022/07/04 05:49:14;;;;;;;6.82;2.13;;;;;;;16.33;73.88;102119.09;5076786;27;99213;-34
2022/07/04 05:51:39;;;;;;;5.88;1.88;;;;;;;16.40;74.27;102124.13;5075643;27;96727;-35
2022/07/04 05:54:05;;;;;;;6.80;2.35;;;;;;;16.40;73.56;102107.72;5077139;27;96787;-34
2022/07/04 05:56:30;;;;;;;4.15;2.05;;;;;;;16.61;74.12;102121.84;5076320;27;99470;-34
2022/07/04 05:58:56;;;;;;;5.68;2.20;;;;;;;16.68;73.95;102117.72;5077033;27;97853;-34
2022/07/04 06:01:21;;;;;;;4.90;1.80;;;;;;;16.65;75.66;102128.88;5077327;27;96563;-34
2022/07/04 06:03:46;;;;;;;10.60;2.63;;;;;;;16.60;74.24;102111.91;5076965;27;96778;-34
2022/07/04 06:06:12;;;;;;;9.68;2.10;;;;;;;16.76;74.70;102115.34;5076872;27;97948;-34
2022/07/04 06:08:37;;;;;;;4.78;2.05;;;;;;;16.84;73.10;102115.75;5076830;27;97281;-34
2022/07/04 06:11:03;;;;;;;7.47;2.50;;;;;;;16.88;73.42;102109.09;5076425;27;101406;-34
2022/07/04 06:13:28;;;;;;;5.03;1.83;;;;;;;16.97;73.55;102096.59;5077128;27;96891;-34
2022/07/04 06:15:54;;;;;;;9.20;2.78;;;;;;;17.07;73.27;102095.00;5076631;27;97846;-34
2022/07/04 06:18:19;;;;;;;6.68;2.55;;;;;;;17.21;73.36;102107.75;5076554;27;97387;-34
2022/07/04 06:20:44;;;;;;;9.25;2.58;;;;;;;17.27;72.59;102093.63;5076264;27;97996;-34
2022/07/04 06:23:10;;;;;;;6.45;2.33;;;;;;;17.41;72.16;102089.91;5076819;27;96847;-34
2022/07/04 06:25:35;;;;;;;6.07;2.08;;;;;;;17.51;73.03;102095.63;5076672;27;97834;-34
2022/07/04 06:28:01;;;;;;;10.07;2.65;;;;;;;17.54;72.51;102085.31;5075760;27;97663;-34
2022/07/04 06:30:26;;;;;;;7.57;2.50;;;;;;;17.62;73.25;102098.47;5074970;27;96676;-34
2022/07/04 06:32:54;;;;;;;9.70;2.40;;;;;;;17.74;72.90;102100.31;5075091;27;96989;-35
2022/07/04 06:38:07;;;;;;;7.60;2.80;;;;;;;17.95;71.91;102103.41;5075079;27;97016;-34
2022/07/04 06:40:34;;;;;;;6.05;2.53;;;;;;;18.09;71.54;102102.41;5076552;27;96520;-34
2022/07/04 06:42:59;;;;;;;5.60;2.20;;;;;;;18.16;71.04;102087.25;5075033;27;96813;-34
2022/07/04 06:45:25;;;;;;;5.57;2.25;;;;;;;18.21;71.32;102096.03;5075378;27;99471;-34
2022/07/04 06:47:50;;;;;;;7.13;2.25;;;;;;;18.30;71.44;102093.56;5076064;27;99208;-34
2022/07/04 06:50:17;;;;;;;13.68;3.10;;;;;;;18.42;70.36;102101.78;5076177;27;96608;-34
2022/07/04 06:52:43;;;;;;;11.05;2.65;;;;;;;18.43;70.72;102103.53;5075885;27;97219;-34
2022/07/04 06:55:09;;;;;;;9.68;2.53;;;;;;;18.60;70.54;102106.88;5076038;27;97568;-34
2022/07/04 06:57:35;;;;;;;6.20;2.13;;;;;;;18.75;69.80;102110.31;5074534;27;101312;-34
2022/07/04 07:00:00;;;;;;;11.30;2.78;;;;;;;18.85;69.67;102114.13;5076209;27;96570;-34
2022/07/04 07:02:26;;;;;;;8.18;2.35;;;;;;;18.97;69.00;102104.94;5075231;27;96801;-34
2022/07/04 07:04:55;;;;;;;5.50;2.35;;;;;;;19.18;69.53;102107.03;5076101;27;97389;-34
2022/07/04 07:07:20;;;;;;;5.28;1.83;;;;;;;19.30;68.07;102117.06;5074484;27;101538;-34
2022/07/04 07:09:45;;;;;;;9.35;3.00;;;;;;;19.41;68.50;102110.75;5075834;27;96424;-34
2022/07/04 07:12:11;;;;;;;6.22;2.47;;;;;;;19.47;67.42;102113.00;5075872;27;97775;-34
2022/07/04 07:14:36;;;;;;;3.95;2.42;;;;;;;19.56;67.63;102108.66;5075542;27;97863;-34
2022/07/04 07:17:02;;;;;;;6.95;2.33;;;;;;;19.58;66.97;102113.03;5075583;27;108165;-34
2022/07/04 07:19:28;;;;;;;9.35;2.60;;;;;;;19.69;68.10;102114.97;5075986;27;96560;-34
2022/07/04 07:21:53;;;;;;;5.72;2.47;;;;;;;19.79;67.27;102112.34;5076038;27;96851;-34
2022/07/04 07:24:18;;;;;;;14.25;3.40;;;;;;;19.95;67.00;102107.34;5075551;27;97337;-34
2022/07/04 07:26:44;;;;;;;10.50;3.22;;;;;;;20.01;66.37;102111.47;5076096;27;97236;-34
2022/07/04 07:29:09;;;;;;;10.35;2.85;;;;;;;20.09;66.00;102111.72;5075783;27;96582;-34
2022/07/04 07:31:34;;;;;;;12.68;2.97;;;;;;;20.25;66.37;102114.09;5075485;27;96800;-34
2022/07/04 07:34:00;;;;;;;10.80;2.72;;;;;;;20.21;65.72;102116.19;5074742;27;106239;-34
2022/07/04 07:36:25;;;;;;;14.50;3.03;;;;;;;20.18;66.07;102123.84;5075434;27;97745;-35
2022/07/04 07:38:52;;;;;;;14.63;3.17;;;;;;;20.39;65.83;102112.94;5075770;27;96542;-34
2022/07/04 07:41:17;;;;;;;13.60;3.08;;;;;;;20.45;64.26;102109.66;5074973;27;96803;-35
2022/07/04 07:43:43;;;;;;;9.68;2.88;;;;;;;20.48;65.09;102129.56;5074750;27;112991;-35
2022/07/04 07:46:08;;;;;;;10.15;3.30;;;;;;;20.34;65.47;102124.34;5074975;27;101295;-35
2022/07/04 07:48:34;;;;;;;5.20;2.60;;;;;;;20.11;65.42;102121.59;5075740;27;96545;-35
2022/07/04 07:51:00;;;;;;;6.78;3.13;;;;;;;19.91;66.10;102128.72;5074366;27;96884;-34
2022/07/04 07:53:25;;;;;;;9.80;3.15;;;;;;;19.77;66.71;102133.59;5075051;27;97521;-34
2022/07/04 07:55:51;;;;;;;10.38;3.47;;;;;;;19.70;66.91;102131.31;5075271;27;97739;-34
2022/07/04 07:58:16;;;;;;;10.05;3.45;;;;;;;19.85;65.66;102137.44;5074888;27;96585;-34
2022/07/04 08:00:41;;;;;;;12.10;3.85;;;;;;;20.05;64.48;102135.00;5075405;27;96837;-34
2022/07/04 08:05:51;;;;;;;11.25;3.63;;;;;;;20.42;64.23;102124.56;5075483;27;97033;-35
2022/07/04 08:08:16;;;;;;;9.95;3.63;;;;;;;20.63;63.99;102129.31;5075248;27;96623;-35
2022/07/04 08:10:42;;;;;;;8.35;2.65;;;;;;;20.83;62.23;102146.91;5075463;27;96992;-34
2022/07/04 08:13:07;;;;;;;5.40;1.90;;;;;;;20.84;61.93;102126.66;5073811;27;103238;-34
2022/07/04 08:15:33;;;;;;;7.32;2.67;;;;;;;20.94;62.78;102139.47;5075758;27;97161;-35
2022/07/04 08:17:58;;;;;;;5.00;2.28;;;;;;;21.07;62.76;102128.31;5075324;27;96584;-35
2022/07/04 08:20:24;;;;;;;6.57;2.85;;;;;;;21.36;61.64;102142.31;5075420;27;96751;-35
2022/07/04 08:22:49;;;;;;;3.83;2.40;;;;;;;21.65;61.18;102149.97;5074452;27;97324;-34
2022/07/04 08:25:16;;;;;;;5.70;2.35;;;;;;;21.84;60.76;102157.50;5074958;27;98181;-34
2022/07/04 08:27:42;;;;;;;3.58;2.20;;;;;;;21.81;59.49;102143.97;5073515;27;96788;-34
2022/07/04 08:30:08;;;;;;;7.85;3.00;;;;;;;21.55;59.73;102155.41;5075377;27;96813;-34
2022/07/04 08:32:33;;;;;;;6.82;1.85;;;;;;;21.71;59.34;102154.06;5074498;27;97911;-34
2022/07/04 08:34:59;;;;;;;8.13;1.88;;;;;;;22.00;57.71;102156.97;5073237;27;100850;-34
2022/07/04 08:37:24;;;;;;;6.57;1.98;;;;;;;22.23;57.52;102155.81;5075338;27;96596;-35
2022/07/04 08:39:50;;;;;;;3.13;1.92;;;;;;;22.06;58.56;102142.63;5075236;27;96851;-35
2022/07/04 08:42:18;;;;;;;10.43;2.10;;;;;;;21.82;58.19;102163.13;5072973;27;100798;-35
2022/07/04 08:44:48;;;;;;;3.55;1.90;;;;;;;21.57;58.95;102155.25;5073206;27;101014;-35
2022/07/04 08:47:19;;;;;;;7.68;1.92;;;;;;;21.46;60.02;102164.47;5072884;27;96660;-34
2022/07/04 08:49:59;;;;;;;4.20;2.33;;;;;;;21.26;59.42;102168.94;5074916;27;96667;-35
2022/07/04 08:52:36;;;;;;;3.83;1.70;;;;;;;21.01;59.79;102159.13;5075702;27;99527;-35
2022/07/04 09:00:33;;;;;;;4.35;1.90;;;;;;;20.62;60.51;102164.25;5078749;27;96435;-35
2022/07/04 09:03:00;;;;;;;4.22;2.13;;;;;;;20.60;59.61;102163.50;5076341;27;100726;-35
2022/07/04 09:05:26;;;;;;;4.10;1.63;;;;;;;20.53;60.37;102165.84;5076758;27;101018;-35
2022/07/04 09:07:52;;;;;;;3.83;2.08;;;;;;;20.42;60.27;102159.47;5076730;27;96547;-35
2022/07/04 09:10:18;;;;;;;5.30;2.25;;;;;;;20.42;59.80;102165.84;5078206;27;96780;-35
2022/07/04 09:12:43;;;;;;;3.38;2.08;;;;;;;20.35;60.12;102168.25;5076585;27;99023;-35
2022/07/04 09:15:09;;;;;;;8.93;2.22;;;;;;;20.36;60.03;102172.75;5077624;27;99090;-35
2022/07/04 09:17:35;;;;;;;4.93;2.20;;;;;;;20.33;60.63;102172.09;5077910;27;96774;-35
2022/07/04 09:20:23;;;;;;;6.55;2.10;;;;;;;20.27;58.36;102164.38;5077736;27;96822;-35
2022/07/04 09:22:51;;;;;;;8.68;2.00;;;;;;;20.23;59.00;102171.13;5076070;27;101301;-35
2022/07/04 09:25:17;;;;;;;9.25;2.20;;;;;;;20.17;58.35;102179.88;5075965;27;101018;-35
2022/07/04 09:27:53;;;;;;;2.95;1.95;;;;;;;20.17;57.66;102169.75;5076425;27;96667;-35
2022/07/04 09:30:21;;;;;;;4.70;2.03;;;;;;;20.18;59.50;102168.72;5077671;27;96745;-35
2022/07/04 09:33:02;;;;;;;3.80;1.75;;;;;;;20.17;59.27;102179.88;5075598;27;101008;-35
2022/07/04 09:35:29;;;;;;;4.63;1.88;;;;;;;20.12;58.70;102175.63;5075840;27;101151;-35
2022/07/04 09:37:59;;;;;;;3.92;2.08;;;;;;;20.08;59.34;102174.13;5075691;27;96565;-35
2022/07/04 09:40:26;;;;;;;4.90;2.13;;;;;;;20.02;59.07;102170.97;5077498;27;96774;-35
2022/07/04 09:42:52;;;;;;;8.35;2.47;;;;;;;20.03;58.85;102181.88;5077067;27;99685;-35
2022/07/04 09:45:19;;;;;;;12.48;2.15;;;;;;;20.04;59.18;102179.97;5075619;27;101256;-34
2022/07/04 09:47:46;;;;;;;3.90;1.73;;;;;;;20.01;58.74;102161.84;5075994;27;96534;-35
2022/07/04 09:50:19;;;;;;;3.47;1.90;;;;;;;20.38;58.01;102164.38;5076031;27;96897;-34
2022/07/04 09:53:00;;;;;;;4.07;2.13;;;;;;;20.84;57.20;102176.22;5075189;27;100876;-35
2022/07/04 09:55:39;;;;;;;3.55;1.30;;;;;;;21.28;54.54;102168.78;5077526;27;97925;-35
2022/07/04 09:58:07;;;;;;;3.55;1.40;;;;;;;21.63;55.09;102163.88;5077083;27;96677;-35
2022/07/04 10:00:38;;;;;;;6.90;1.35;;;;;;;21.96;53.22;102161.03;5075887;27;96889;-35
2022/07/04 10:03:26;;;;;;;2.42;1.48;;;;;;;22.34;53.05;102168.66;5074670;27;101690;-35
2022/07/04 10:06:04;;;;;;;4.22;1.55;;;;;;;22.62;51.29;102172.53;5075435;27;100855;-35
2022/07/04 10:08:31;;;;;;;3.40;1.50;;;;;;;22.73;52.26;102152.19;5075674;27;96709;-35
2022/07/04 10:10:57;;;;;;;2.47;1.35;;;;;;;22.93;50.37;102155.00;5075631;27;96834;-35
2022/07/04 10:13:23;;;;;;;10.27;2.03;;;;;;;22.73;51.62;102168.78;5074858;27;101021;-34
2022/07/04 10:15:49;;;;;;;2.63;1.40;;;;;;;22.56;52.34;102156.53;5076575;27;97293;-35
2022/07/04 10:18:18;;;;;;;2.58;1.38;;;;;;;22.52;50.28;102156.94;5075382;27;96610;-35
2022/07/04 10:20:44;;;;;;;6.05;1.52;;;;;;;22.35;52.51;102177.81;5075815;27;97008;-34
2022/07/04 10:23:11;;;;;;;3.47;1.42;;;;;;;22.35;52.11;102170.41;5075103;27;101022;-35
2022/07/04 10:25:37;;;;;;;3.85;1.80;;;;;;;22.67;52.74;102161.06;5075088;27;100455;-34
2022/07/04 10:28:03;;;;;;;3.35;1.58;;;;;;;22.80;51.62;102158.03;5076387;27;96548;-35
2022/07/04 10:30:32;;;;;;;4.28;1.40;;;;;;;23.11;50.19;102161.59;5076844;27;96594;-34
2022/07/04 10:33:01;;;;;;;6.68;1.65;;;;;;;23.49;49.26;102159.84;5074983;27;101099;-34
2022/07/04 10:35:49;;;;;;;6.68;1.63;;;;;;;23.43;49.96;102169.63;5076164;27;97988;-34
2022/07/04 10:38:16;;;;;;;4.22;1.63;;;;;;;23.45;50.80;102159.25;5076726;27;96762;-34
2022/07/04 10:41:19;;;;;;;2.88;1.73;;;;;;;23.72;49.99;102168.72;5076593;27;96792;-34
2022/07/04 10:43:47;;;;;;;4.60;1.80;;;;;;;23.99;49.14;102167.94;5075291;27;99260;-34
2022/07/04 10:46:13;;;;;;;3.35;1.45;;;;;;;24.18;49.83;102169.78;5076729;27;97890;-34
2022/07/04 10:48:58;;;;;;;4.30;2.03;;;;;;;24.25;49.01;102172.81;5076327;27;96658;-34
2022/07/04 10:51:45;;;;;;;6.65;1.63;;;;;;;24.27;46.87;102159.69;5074721;27;96949;-34
2022/07/04 10:54:18;;;;;;;5.65;1.70;;;;;;;24.26;48.68;102163.47;5075295;27;100668;-34
2022/07/04 10:56:51;;;;;;;5.75;2.20;;;;;;;24.38;48.17;102152.06;5076003;27;98020;-34
2022/07/04 10:59:21;;;;;;;3.70;1.58;;;;;;;24.28;48.46;102170.59;5074941;27;96720;-34
2022/07/04 11:01:51;;;;;;;3.28;1.33;;;;;;;24.01;46.81;102160.34;5074680;27;96774;-35
2022/07/04 11:04:46;;;;;;;4.00;1.55;;;;;;;23.99;46.90;102173.47;5074429;27;101039;-35
2022/07/04 11:07:12;;;;;;;2.58;1.55;;;;;;;24.21;48.88;102160.28;5074474;27;98910;-35
2022/07/04 11:09:37;;;;;;;5.70;1.67;;;;;;;24.35;47.64;102163.41;5076059;27;96650;-35
2022/07/04 11:12:05;;;;;;;2.72;1.60;;;;;;;24.52;46.03;102149.81;5076400;27;96843;-35
2022/07/04 11:14:35;;;;;;;3.13;1.63;;;;;;;24.69;47.34;102156.41;5074274;27;97961;-35
2022/07/04 11:17:02;;;;;;;2.78;1.38;;;;;;;24.73;46.96;102149.56;5074245;27;101224;-35
2022/07/04 11:19:27;;;;;;;3.92;1.50;;;;;;;24.81;46.56;102152.41;5074157;27;96625;-35
2022/07/04 11:21:57;;;;;;;8.02;2.20;;;;;;;24.54;46.83;102156.06;5075761;27;96855;-35
2022/07/04 11:24:24;;;;;;;3.35;1.60;;;;;;;24.43;44.70;102156.25;5074107;27;101248;-35
2022/07/04 11:26:50;;;;;;;3.65;1.67;;;;;;;24.53;46.14;102143.28;5073930;27;101109;-35
2022/07/04 11:29:15;;;;;;;2.90;1.70;;;;;;;24.75;45.31;102153.03;5075677;27;96591;-34
2022/07/04 11:31:44;;;;;;;5.10;1.50;;;;;;;24.88;44.56;102141.56;5075688;27;96809;-35
2022/07/04 11:34:09;;;;;;;1.90;1.30;;;;;;;24.90;44.66;102143.16;5073740;27;101316;-35
2022/07/04 11:36:35;;;;;;;3.45;1.50;;;;;;;25.05;44.93;102134.28;5075584;27;99380;-35
2022/07/04 11:39:06;;;;;;;5.53;1.30;;;;;;;25.21;43.39;102143.66;5074245;27;96684;-35
2022/07/04 11:47:18;;;;;;;4.63;1.50;;;;;;;25.45;44.25;102127.41;5075533;27;96635;-35
2022/07/04 11:49:49;;;;;;;1.25;1.05;;;;;;;25.53;43.81;102142.22;5075371;27;96690;-35
2022/07/04 11:52:17;;;;;;;2.72;1.33;;;;;;;25.66;44.17;102125.13;5073953;27;96815;-35
2022/07/04 11:54:45;;;;;;;2.75;1.38;;;;;;;25.57;42.31;102120.56;5073826;27;101039;-35
2022/07/04 11:57:16;;;;;;;3.75;1.50;;;;;;;25.69;43.27;102135.03;5073525;27;104008;-35
2022/07/04 11:59:43;;;;;;;3.38;1.40;;;;;;;25.81;43.38;102123.53;5075274;27;96489;-34
2022/07/04 12:02:15;;;;;;;2.47;1.60;;;;;;;25.74;41.67;102114.09;5074225;27;96895;-34
2022/07/04 12:04:42;;;;;;;7.70;1.63;;;;;;;25.69;43.26;102116.47;5073639;27;100104;-35
2022/07/04 12:07:13;;;;;;;3.17;2.15;;;;;;;25.64;42.81;102118.88;5073716;27;101107;-35
2022/07/04 12:09:39;;;;;;;2.72;1.17;;;;;;;25.39;42.96;102126.16;5073458;27;96729;-35
2022/07/04 12:12:05;;;;;;;3.40;1.73;;;;;;;25.23;43.89;102103.81;5073944;27;96848;-35
2022/07/04 12:14:30;;;;;;;2.17;1.35;;;;;;;25.46;43.46;102115.25;5074780;27;97977;-34
2022/07/04 12:17:13;;;;;;;4.63;1.48;;;;;;;25.58;43.39;102106.53;5074507;27;108135;-35
2022/07/04 12:19:59;;;;;;;3.38;1.45;;;;;;;25.72;42.63;102105.06;5075253;27;96658;-35
2022/07/04 12:22:32;;;;;;;5.38;1.38;;;;;;;25.82;42.45;102107.72;5075126;27;96712;-35
2022/07/04 12:25:00;;;;;;;3.30;1.52;;;;;;;25.71;43.07;102117.19;5074797;27;99174;-35
2022/07/04 12:27:26;;;;;;;3.63;1.10;;;;;;;25.67;42.73;102110.25;5076559;27;101331;-35
2022/07/04 12:29:53;;;;;;;2.95;1.45;;;;;;;25.68;42.39;102106.41;5077209;27;96499;-35
2022/07/04 12:32:19;;;;;;;4.60;1.25;;;;;;;25.72;42.90;102110.63;5077220;27;96766;-35
2022/07/04 12:34:45;;;;;;;2.75;1.40;;;;;;;25.85;42.62;102111.03;5077666;27;98041;-35
2022/07/04 12:37:13;;;;;;;1.90;0.98;;;;;;;25.74;41.57;102088.22;5078308;27;97761;-35
2022/07/04 12:39:41;;;;;;;2.20;1.20;;;;;;;25.83;41.69;102102.00;5077093;27;96636;-35
2022/07/04 12:42:09;;;;;;;7.13;1.35;;;;;;;25.89;42.73;102094.97;5077167;27;96823;-35
2022/07/04 12:44:35;;;;;;;2.67;1.10;;;;;;;25.91;42.10;102094.78;5076686;27;101444;-35
2022/07/04 12:47:03;;;;;;;3.88;1.27;;;;;;;25.92;41.95;102086.28;5076586;27;101030;-35
2022/07/04 12:49:28;;;;;;;2.10;1.13;;;;;;;26.02;42.61;102092.59;5076783;27;97865;-35
2022/07/04 12:52:04;;;;;;;8.70;1.40;;;;;;;26.17;41.67;102094.75;5078306;27;96831;-35
2022/07/04 12:54:30;;;;;;;4.13;1.33;;;;;;;26.04;42.26;102098.84;5076390;27;101351;-35
2022/07/04 12:57:04;;;;;;;3.25;1.27;;;;;;;26.00;41.54;102099.34;5078139;27;97148;-35
2022/07/04 12:59:30;;;;;;;3.88;1.40;;;;;;;26.00;42.65;102082.69;5076478;27;96840;-35
2022/07/04 13:01:55;;;;;;;2.70;1.27;;;;;;;26.00;41.96;102083.56;5078165;27;96806;-35
2022/07/04 13:04:20;;;;;;;3.55;1.23;;;;;;;26.02;41.06;102084.25;5077566;27;105919;-35
2022/07/04 13:06:46;;;;;;;2.72;1.25;;;;;;;25.98;41.84;102081.97;5076871;27;112571;-35
2022/07/04 13:09:12;;;;;;;1.77;1.20;;;;;;;25.78;42.15;102076.63;5076585;27;97109;-35
2022/07/04 13:14:21;;;;;;;4.95;1.02;;;;;;;25.74;41.91;102078.03;5077225;27;97089;-35
2022/07/04 13:16:47;;;;;;;2.22;1.33;;;;;;;25.83;41.83;102081.69;5078225;27;97301;-35
2022/07/04 13:19:12;;;;;;;6.65;1.65;;;;;;;25.73;42.30;102079.03;5077887;27;96543;-35
2022/07/04 13:21:38;;;;;;;6.75;1.60;;;;;;;25.85;42.35;102093.50;5077821;27;96806;-35
2022/07/04 13:24:04;;;;;;;5.97;1.40;;;;;;;25.89;41.71;102091.31;5077352;27;97497;-35
2022/07/04 13:26:30;;;;;;;2.20;1.00;;;;;;;25.79;42.11;102094.16;5077860;27;97478;-35
2022/07/04 13:28:56;;;;;;;2.65;1.30;;;;;;;25.80;41.16;102094.00;5077754;27;96691;-35
2022/07/04 13:31:22;;;;;;;3.45;1.42;;;;;;;25.71;42.04;102078.31;5076394;27;96801;-35
2022/07/04 13:33:47;;;;;;;2.67;1.33;;;;;;;25.75;41.53;102090.84;5076737;27;99195;-35
2022/07/04 13:36:14;;;;;;;2.65;1.33;;;;;;;25.70;41.24;102097.94;5077205;27;97362;-35
2022/07/04 13:38:40;;;;;;;1.95;1.35;;;;;;;25.63;40.89;102092.16;5075537;27;96514;-35
2022/07/04 13:41:06;;;;;;;1.75;1.10;;;;;;;25.57;42.12;102090.91;5076521;27;96908;-35
2022/07/04 13:43:31;;;;;;;2.42;1.30;;;;;;;25.53;41.85;102094.16;5077592;27;97684;-35
2022/07/04 13:45:56;;;;;;;2.53;1.00;;;;;;;25.52;42.31;102092.44;5077316;27;97327;-35
2022/07/04 13:48:22;;;;;;;1.67;1.17;;;;;;;25.52;40.71;102089.66;5076863;27;96497;-35
2022/07/04 13:50:48;;;;;;;1.95;1.00;;;;;;;25.41;42.27;102097.22;5075952;27;96867;-35
2022/07/04 13:53:13;;;;;;;4.20;1.50;;;;;;;25.26;39.04;102095.16;5076891;27;101048;-35
2022/07/04 13:55:39;;;;;;;3.53;1.13;;;;;;;25.23;40.97;102095.50;5076909;27;99416;-35
2022/07/04 13:58:06;;;;;;;3.25;1.23;;;;;;;25.04;42.56;102105.69;5075915;27;96587;-35
2022/07/04 14:00:33;;;;;;;2.67;1.30;;;;;;;25.09;42.60;102105.22;5075840;27;96954;-35
2022/07/04 14:02:59;;;;;;;2.53;1.25;;;;;;;25.08;42.89;102096.03;5076935;27;98032;-35
2022/07/04 14:05:24;;;;;;;2.90;1.30;;;;;;;25.02;42.83;102094.75;5075803;27;101508;-35
2022/07/04 14:07:51;;;;;;;3.50;1.25;;;;;;;25.02;42.56;102091.97;5076965;27;96446;-35
2022/07/04 14:10:17;;;;;;;1.92;1.30;;;;;;;25.09;42.57;102103.31;5077068;27;96778;-34
2022/07/04 14:12:42;;;;;;;2.15;1.50;;;;;;;25.01;41.97;102086.63;5075467;27;98947;-35
2022/07/04 14:15:09;;;;;;;1.75;1.10;;;;;;;24.99;42.96;102086.75;5075193;27;100784;-35
2022/07/04 14:17:35;;;;;;;1.35;1.10;;;;;;;24.80;42.68;102078.59;5075378;27;96652;-35
2022/07/04 14:20:00;;;;;;;6.55;1.33;;;;;;;24.80;43.41;102075.84;5077178;27;96769;-35
2022/07/04 14:22:26;;;;;;;4.57;1.30;;;;;;;24.85;43.35;102084.53;5076609;27;97482;-35
2022/07/04 14:24:52;;;;;;;3.42;1.33;;;;;;;24.78;42.88;102075.13;5076362;27;99394;-35
2022/07/04 14:27:17;;;;;;;3.58;1.27;;;;;;;24.75;42.33;102079.06;5076989;27;96575;-35
2022/07/04 14:29:43;;;;;;;3.55;0.90;;;;;;;24.71;43.42;102080.41;5077206;27;96922;-35
2022/07/04 14:32:08;;;;;;;1.20;0.90;;;;;;;24.66;43.21;102073.63;5076122;27;102446;-35
2022/07/04 14:34:34;;;;;;;1.52;1.10;;;;;;;24.67;42.93;102084.56;5076445;27;97249;-35
2022/07/04 14:37:00;;;;;;;5.85;1.20;;;;;;;24.61;43.36;102079.63;5076117;27;96382;-35
2022/07/04 14:39:27;;;;;;;1.83;1.10;;;;;;;24.54;43.39;102076.59;5075113;27;96893;-35
2022/07/04 14:41:53;;;;;;;1.38;1.00;;;;;;;24.52;43.56;102075.88;5074747;27;101325;-35
2022/07/04 14:44:18;;;;;;;3.63;1.00;;;;;;;24.53;43.54;102082.31;5074641;27;100664;-35
2022/07/04 14:46:43;;;;;;;2.25;1.10;;;;;;;24.54;43.81;102076.59;5076325;27;96679;-35
2022/07/04 14:49:09;;;;;;;1.98;1.30;;;;;;;24.52;43.27;102070.34;5075527;27;96900;-35
2022/07/04 14:51:35;;;;;;;3.80;1.50;;;;;;;24.43;43.78;102085.13;5075655;27;99669;-34
2022/07/04 14:54:00;;;;;;;5.60;1.30;;;;;;;24.31;44.07;102081.69;5076030;27;99043;-35
2022/07/04 14:56:26;;;;;;;1.98;1.00;;;;;;;24.28;43.65;102070.91;5076322;27;96640;-35
2022/07/04 14:58:51;;;;;;;3.75;1.30;;;;;;;24.35;43.92;102077.56;5076454;27;96796;-35
2022/07/04 15:01:16;;;;;;;3.17;1.45;;;;;;;24.29;44.02;102063.47;5075085;27;99304;-35
2022/07/04 15:03:42;;;;;;;2.45;1.20;;;;;;;24.31;43.94;102075.25;5074397;27;101419;-34
2022/07/04 15:06:07;;;;;;;2.00;1.20;;;;;;;24.29;43.93;102082.88;5076442;27;96641;-34
2022/07/04 15:08:33;;;;;;;5.90;1.35;;;;;;;24.21;43.97;102077.22;5076303;27;96818;-34
2022/07/04 15:10:58;;;;;;;1.85;1.25;;;;;;;24.15;43.11;102067.63;5075893;27;97956;-34
2022/07/04 15:13:23;;;;;;;4.40;1.25;;;;;;;24.13;44.55;102070.53;5074482;27;121029;-35
2022/07/04 15:15:49;;;;;;;1.77;1.20;;;;;;;24.10;44.55;102081.06;5075999;27;96473;-35
2022/07/04 15:18:14;;;;;;;3.88;1.02;;;;;;;23.99;43.47;102057.22;5076439;27;96799;-35
2022/07/04 15:26:07;;;;;;;2.35;1.23;;;;;;;23.90;44.10;102063.66;5075984;27;96600;-35
2022/07/04 15:28:33;;;;;;;1.23;0.88;;;;;;;23.96;43.98;102065.84;5075810;27;96938;-35
2022/07/04 15:31:00;;;;;;;1.13;1.00;;;;;;;23.97;44.30;102069.47;5074133;27;100628;-34
2022/07/04 15:33:25;;;;;;;4.15;1.33;;;;;;;23.97;44.28;102077.78;5075053;27;99697;-35
2022/07/04 15:35:54;;;;;;;1.88;1.23;;;;;;;23.91;43.50;102068.19;5075626;27;96764;-35
2022/07/04 15:38:20;;;;;;;1.98;1.20;;;;;;;23.90;44.30;102071.97;5074354;27;96997;-35
2022/07/04 15:40:45;;;;;;;2.45;1.05;;;;;;;23.84;44.26;102070.69;5075707;27;97571;-34
2022/07/04 15:43:11;;;;;;;2.80;1.35;;;;;;;23.88;44.72;102069.38;5075382;27;99079;-35
2022/07/04 15:45:36;;;;;;;4.35;1.25;;;;;;;23.77;44.77;102064.00;5075821;27;96733;-35
2022/07/04 15:48:01;;;;;;;3.50;1.40;;;;;;;23.78;44.85;102062.97;5075332;27;96831;-35
2022/07/04 15:50:28;;;;;;;2.60;1.15;;;;;;;23.80;45.07;102074.78;5074539;27;99395;-35
2022/07/04 15:52:54;;;;;;;2.10;1.10;;;;;;;23.84;44.83;102067.06;5073609;27;101383;-35
2022/07/04 15:55:19;;;;;;;2.10;1.15;;;;;;;23.87;44.88;102058.44;5076037;27;96882;-35
2022/07/04 15:57:45;;;;;;;1.30;1.08;;;;;;;23.84;44.84;102062.38;5075518;27;96947;-35
2022/07/04 16:00:10;;;;;;;4.00;1.30;;;;;;;23.68;45.44;102060.22;5075218;27;97889;-35
2022/07/04 16:02:36;;;;;;;4.05;1.15;;;;;;;23.62;45.62;102068.22;5078811;27;97237;-35
2022/07/04 16:05:01;;;;;;;2.08;1.20;;;;;;;23.61;45.70;102061.84;5079161;27;96808;-34
2022/07/04 16:07:26;;;;;;;1.83;1.13;;;;;;;23.56;45.54;102060.56;5079537;27;96810;-35
2022/07/04 16:09:52;;;;;;;2.53;1.27;;;;;;;23.44;45.74;102051.56;5077359;27;97443;-34
2022/07/04 16:12:17;;;;;;;2.00;1.27;;;;;;;23.46;45.88;102052.28;5058734;27;97264;-35
2022/07/04 16:14:42;;;;;;;7.00;1.52;;;;;;;23.46;46.09;102053.16;5057728;27;96822;-35
2022/07/04 16:17:08;;;;;;;4.88;1.58;;;;;;;23.37;45.73;102047.66;5074561;27;96792;-34
2022/07/04 16:19:33;;;;;;;1.95;1.33;;;;;;;23.32;45.85;102057.25;5078551;27;97956;-35
2022/07/04 16:21:59;;;;;;;6.38;1.10;;;;;;;23.20;45.95;102047.38;5078583;27;97855;-35
2022/07/04 16:24:24;;;;;;;5.72;1.25;;;;;;;23.10;45.82;102039.09;5078646;27;97089;-35
2022/07/04 16:26:51;;;;;;;3.13;1.20;;;;;;;23.13;46.18;102054.53;5078265;27;96806;-35
2022/07/04 16:29:16;;;;;;;2.03;1.25;;;;;;;22.95;46.95;102040.53;5078239;27;99520;-35
2022/07/04 16:31:42;;;;;;;2.90;1.48;;;;;;;22.95;45.58;102039.66;5078470;27;99159;-35
2022/07/04 16:34:07;;;;;;;2.85;1.30;;;;;;;22.90;46.21;102037.31;5076598;27;97173;-36
2022/07/04 16:36:33;;;;;;;2.38;1.20;;;;;;;22.89;45.61;102035.59;5060953;27;97568;-35
2022/07/04 16:38:58;;;;;;;3.17;1.25;;;;;;;22.79;46.00;102035.59;5055827;27;99345;-35
2022/07/04 16:41:24;;;;;;;2.28;1.15;;;;;;;22.79;45.45;102043.88;5063414;27;97792;-35
2022/07/04 16:43:49;;;;;;;1.95;0.98;;;;;;;22.81;45.44;102047.38;5071710;27;96930;-34
2022/07/04 16:46:14;;;;;;;3.45;1.40;;;;;;;22.71;45.98;102049.25;5058080;27;96793;-35
2022/07/04 16:48:40;;;;;;;1.90;1.00;;;;;;;22.65;45.63;102049.84;5070313;27;99626;-35
2022/07/04 16:51:06;;;;;;;1.35;0.90;;;;;;;22.62;45.96;102034.44;5076375;27;100734;-35
2022/07/04 16:53:31;;;;;;;1.73;1.17;;;;;;;22.63;46.06;102051.88;5075015;27;97108;-35
2022/07/04 16:55:58;;;;;;;3.13;1.02;;;;;;;22.57;45.88;102053.34;5077065;27;97122;-35
2022/07/04 16:58:23;;;;;;;2.85;1.33;;;;;;;22.55;46.16;102055.38;5073292;27;101002;-35